sensor_id;sensor_type;location;lat;lon;timestamp;P1;durP1;ratioP1;P2;durP2;ratioP2
51943;SDS011;37969;53.132;6.370;2023-06-22T00:01:51;17.52;;;15.50;;
51943;SDS011;37969;53.132;6.370;2023-06-22T00:04:17;17.55;;;14.90;;
51943;SDS011;37969;53.132;6.370;2023-06-22T00:06:43;15.68;;;13.63;;
51943;SDS011;37969;53.132;6.370;2023-06-22T00:09:09;22.98;;;15.93;;
51943;SDS011;37969;53.132;6.370;2023-06-22T00:11:36;18.48;;;14.23;;
51943;SDS011;37969;53.132;6.370;2023-06-22T00:14:02;19.75;;;9.80;;
51943;SDS011;37969;53.132;6.370;2023-06-22T00:16:29;10.00;;;8.40;;
51943;SDS011;37969;53.132;6.370;2023-06-22T00:18:55;34.75;;;14.60;;
51943;SDS011;37969;53.132;6.370;2023-06-22T00:21:23;69.35;;;23.40;;
51943;SDS011;37969;53.132;6.370;2023-06-22T00:23:49;29.38;;;25.25;;
51943;SDS011;37969;53.132;6.370;2023-06-22T00:26:15;24.13;;;21.63;;
51943;SDS011;37969;53.132;6.370;2023-06-22T00:28:42;16.05;;;14.38;;
51943;SDS011;37969;53.132;6.370;2023-06-22T00:31:08;18.98;;;16.95;;
51943;SDS011;37969;53.132;6.370;2023-06-22T00:33:34;33.08;;;23.83;;
51943;SDS011;37969;53.132;6.370;2023-06-22T00:36:00;17.42;;;15.50;;
51943;SDS011;37969;53.132;6.370;2023-06-22T00:38:28;17.92;;;16.17;;
51943;SDS011;37969;53.132;6.370;2023-06-22T00:40:54;15.35;;;13.60;;
51943;SDS011;37969;53.132;6.370;2023-06-22T00:43:20;20.75;;;17.83;;
51943;SDS011;37969;53.132;6.370;2023-06-22T00:45:46;31.55;;;23.90;;
51943;SDS011;37969;53.132;6.370;2023-06-22T00:48:13;24.70;;;22.10;;
51943;SDS011;37969;53.132;6.370;2023-06-22T00:50:40;23.55;;;21.13;;
51943;SDS011;37969;53.132;6.370;2023-06-22T00:53:07;19.60;;;16.73;;
51943;SDS011;37969;53.132;6.370;2023-06-22T00:55:35;21.10;;;18.45;;
51943;SDS011;37969;53.132;6.370;2023-06-22T00:58:04;21.98;;;18.73;;
51943;SDS011;37969;53.132;6.370;2023-06-22T01:00:33;25.02;;;22.30;;
51943;SDS011;37969;53.132;6.370;2023-06-22T01:02:59;29.13;;;23.20;;
51943;SDS011;37969;53.132;6.370;2023-06-22T01:05:25;23.08;;;20.58;;
51943;SDS011;37969;53.132;6.370;2023-06-22T01:10:31;20.13;;;18.08;;
51943;SDS011;37969;53.132;6.370;2023-06-22T01:13:07;12.63;;;11.32;;
51943;SDS011;37969;53.132;6.370;2023-06-22T01:15:41;11.20;;;10.15;;
51943;SDS011;37969;53.132;6.370;2023-06-22T01:18:08;14.38;;;12.95;;
51943;SDS011;37969;53.132;6.370;2023-06-22T01:20:36;233.10;;;16.05;;
51943;SDS011;37969;53.132;6.370;2023-06-22T01:23:12;207.57;;;19.42;;
51943;SDS011;37969;53.132;6.370;2023-06-22T01:25:59;145.93;;;19.63;;
51943;SDS011;37969;53.132;6.370;2023-06-22T01:31:02;18.55;;;16.63;;
51943;SDS011;37969;53.132;6.370;2023-06-22T01:33:33;19.73;;;16.98;;
51943;SDS011;37969;53.132;6.370;2023-06-22T01:36:00;18.45;;;16.55;;
51943;SDS011;37969;53.132;6.370;2023-06-22T01:41:49;19.45;;;16.63;;
51943;SDS011;37969;53.132;6.370;2023-06-22T01:44:16;17.92;;;16.13;;
51943;SDS011;37969;53.132;6.370;2023-06-22T01:46:42;17.50;;;15.73;;
51943;SDS011;37969;53.132;6.370;2023-06-22T01:49:09;19.70;;;15.82;;
51943;SDS011;37969;53.132;6.370;2023-06-22T01:51:36;18.80;;;16.88;;
51943;SDS011;37969;53.132;6.370;2023-06-22T01:54:02;16.15;;;14.60;;
51943;SDS011;37969;53.132;6.370;2023-06-22T01:56:28;16.48;;;14.90;;
51943;SDS011;37969;53.132;6.370;2023-06-22T01:58:57;12.25;;;11.15;;
51943;SDS011;37969;53.132;6.370;2023-06-22T02:01:26;10.98;;;9.88;;
51943;SDS011;37969;53.132;6.370;2023-06-22T02:04:02;11.88;;;10.75;;
51943;SDS011;37969;53.132;6.370;2023-06-22T02:06:33;32.65;;;21.17;;
51943;SDS011;37969;53.132;6.370;2023-06-22T02:09:02;18.65;;;16.70;;
51943;SDS011;37969;53.132;6.370;2023-06-22T02:11:31;16.35;;;14.75;;
51943;SDS011;37969;53.132;6.370;2023-06-22T02:13:59;13.23;;;11.93;;
51943;SDS011;37969;53.132;6.370;2023-06-22T02:16:25;13.02;;;11.82;;
51943;SDS011;37969;53.132;6.370;2023-06-22T02:18:55;12.57;;;11.48;;
51943;SDS011;37969;53.132;6.370;2023-06-22T02:21:22;11.90;;;10.70;;
51943;SDS011;37969;53.132;6.370;2023-06-22T02:23:48;17.15;;;15.45;;
51943;SDS011;37969;53.132;6.370;2023-06-22T02:26:16;13.45;;;12.20;;
51943;SDS011;37969;53.132;6.370;2023-06-22T02:28:42;14.40;;;13.10;;
51943;SDS011;37969;53.132;6.370;2023-06-22T02:31:08;13.70;;;12.40;;
51943;SDS011;37969;53.132;6.370;2023-06-22T02:33:34;13.25;;;11.98;;
51943;SDS011;37969;53.132;6.370;2023-06-22T02:36:01;12.50;;;11.40;;
51943;SDS011;37969;53.132;6.370;2023-06-22T02:38:30;15.48;;;13.88;;
51943;SDS011;37969;53.132;6.370;2023-06-22T02:40:59;16.63;;;15.02;;
51943;SDS011;37969;53.132;6.370;2023-06-22T02:43:26;22.75;;;14.80;;
51943;SDS011;37969;53.132;6.370;2023-06-22T02:45:52;25.90;;;18.80;;
51943;SDS011;37969;53.132;6.370;2023-06-22T02:48:18;30.67;;;21.83;;
51943;SDS011;37969;53.132;6.370;2023-06-22T02:50:45;27.98;;;18.90;;
51943;SDS011;37969;53.132;6.370;2023-06-22T02:53:11;21.75;;;19.35;;
51943;SDS011;37969;53.132;6.370;2023-06-22T02:55:37;23.45;;;20.90;;
51943;SDS011;37969;53.132;6.370;2023-06-22T02:58:05;29.25;;;23.90;;
51943;SDS011;37969;53.132;6.370;2023-06-22T03:00:31;21.33;;;19.23;;
51943;SDS011;37969;53.132;6.370;2023-06-22T03:02:58;22.45;;;20.08;;
51943;SDS011;37969;53.132;6.370;2023-06-22T03:05:24;22.38;;;19.88;;
51943;SDS011;37969;53.132;6.370;2023-06-22T03:07:51;23.95;;;21.13;;
51943;SDS011;37969;53.132;6.370;2023-06-22T03:10:17;73.15;;;24.33;;
51943;SDS011;37969;53.132;6.370;2023-06-22T03:12:43;32.08;;;21.33;;
51943;SDS011;37969;53.132;6.370;2023-06-22T03:15:11;22.58;;;19.25;;
51943;SDS011;37969;53.132;6.370;2023-06-22T03:17:38;82.90;;;19.45;;
51943;SDS011;37969;53.132;6.370;2023-06-22T03:20:06;19.95;;;17.88;;
51943;SDS011;37969;53.132;6.370;2023-06-22T03:22:35;20.50;;;18.35;;
51943;SDS011;37969;53.132;6.370;2023-06-22T03:25:02;17.35;;;15.65;;
51943;SDS011;37969;53.132;6.370;2023-06-22T03:27:28;16.00;;;14.63;;
51943;SDS011;37969;53.132;6.370;2023-06-22T03:29:54;17.92;;;16.13;;
51943;SDS011;37969;53.132;6.370;2023-06-22T03:32:20;14.15;;;13.02;;
51943;SDS011;37969;53.132;6.370;2023-06-22T03:34:46;12.57;;;11.38;;
51943;SDS011;37969;53.132;6.370;2023-06-22T03:37:13;16.65;;;14.73;;
51943;SDS011;37969;53.132;6.370;2023-06-22T03:39:40;16.58;;;14.95;;
51943;SDS011;37969;53.132;6.370;2023-06-22T03:42:06;18.15;;;16.10;;
51943;SDS011;37969;53.132;6.370;2023-06-22T03:44:33;25.48;;;19.17;;
51943;SDS011;37969;53.132;6.370;2023-06-22T03:47:01;20.50;;;18.40;;
51943;SDS011;37969;53.132;6.370;2023-06-22T03:49:27;77.05;;;19.45;;
51943;SDS011;37969;53.132;6.370;2023-06-22T03:51:53;17.23;;;15.88;;
51943;SDS011;37969;53.132;6.370;2023-06-22T03:54:19;17.17;;;15.57;;
51943;SDS011;37969;53.132;6.370;2023-06-22T03:56:46;16.67;;;15.38;;
51943;SDS011;37969;53.132;6.370;2023-06-22T03:59:12;15.27;;;13.77;;
51943;SDS011;37969;53.132;6.370;2023-06-22T04:01:38;18.10;;;14.50;;
51943;SDS011;37969;53.132;6.370;2023-06-22T04:04:05;20.10;;;11.35;;
51943;SDS011;37969;53.132;6.370;2023-06-22T04:06:31;10.75;;;9.90;;
51943;SDS011;37969;53.132;6.370;2023-06-22T04:08:59;11.18;;;10.20;;
51943;SDS011;37969;53.132;6.370;2023-06-22T04:11:26;11.57;;;10.48;;
51943;SDS011;37969;53.132;6.370;2023-06-22T04:13:52;12.02;;;10.43;;
51943;SDS011;37969;53.132;6.370;2023-06-22T04:16:18;10.80;;;9.90;;
51943;SDS011;37969;53.132;6.370;2023-06-22T04:18:45;12.30;;;11.10;;
51943;SDS011;37969;53.132;6.370;2023-06-22T04:21:11;13.35;;;12.05;;
51943;SDS011;37969;53.132;6.370;2023-06-22T04:23:37;17.40;;;15.55;;
51943;SDS011;37969;53.132;6.370;2023-06-22T04:26:03;21.63;;;19.35;;
51943;SDS011;37969;53.132;6.370;2023-06-22T04:28:29;29.17;;;25.45;;
51943;SDS011;37969;53.132;6.370;2023-06-22T04:31:00;25.73;;;22.65;;
51943;SDS011;37969;53.132;6.370;2023-06-22T04:33:27;37.05;;;30.85;;
51943;SDS011;37969;53.132;6.370;2023-06-22T04:35:54;38.58;;;31.17;;
51943;SDS011;37969;53.132;6.370;2023-06-22T04:38:22;116.80;;;35.25;;
51943;SDS011;37969;53.132;6.370;2023-06-22T04:40:49;52.13;;;37.88;;
51943;SDS011;37969;53.132;6.370;2023-06-22T04:43:15;39.15;;;33.63;;
51943;SDS011;37969;53.132;6.370;2023-06-22T04:45:42;43.53;;;36.65;;
51943;SDS011;37969;53.132;6.370;2023-06-22T04:48:08;52.22;;;39.63;;
51943;SDS011;37969;53.132;6.370;2023-06-22T04:50:35;43.60;;;36.10;;
51943;SDS011;37969;53.132;6.370;2023-06-22T04:53:04;45.47;;;38.20;;
51943;SDS011;37969;53.132;6.370;2023-06-22T04:55:31;45.15;;;37.75;;
51943;SDS011;37969;53.132;6.370;2023-06-22T04:57:57;47.65;;;39.05;;
51943;SDS011;37969;53.132;6.370;2023-06-22T05:00:30;42.58;;;37.08;;
51943;SDS011;37969;53.132;6.370;2023-06-22T05:02:56;46.13;;;39.90;;
51943;SDS011;37969;53.132;6.370;2023-06-22T05:05:23;41.13;;;34.28;;
51943;SDS011;37969;53.132;6.370;2023-06-22T05:07:50;43.00;;;36.38;;
51943;SDS011;37969;53.132;6.370;2023-06-22T05:10:18;41.30;;;36.25;;
51943;SDS011;37969;53.132;6.370;2023-06-22T05:12:45;42.88;;;37.53;;
51943;SDS011;37969;53.132;6.370;2023-06-22T05:15:11;43.45;;;36.20;;
51943;SDS011;37969;53.132;6.370;2023-06-22T05:17:37;42.80;;;37.35;;
51943;SDS011;37969;53.132;6.370;2023-06-22T05:20:09;45.60;;;39.92;;
51943;SDS011;37969;53.132;6.370;2023-06-22T05:22:35;46.22;;;37.95;;
51943;SDS011;37969;53.132;6.370;2023-06-22T05:25:01;45.97;;;38.35;;
51943;SDS011;37969;53.132;6.370;2023-06-22T05:27:27;51.03;;;39.95;;
51943;SDS011;37969;53.132;6.370;2023-06-22T05:29:54;51.22;;;43.88;;
51943;SDS011;37969;53.132;6.370;2023-06-22T05:32:20;54.40;;;45.35;;
51943;SDS011;37969;53.132;6.370;2023-06-22T05:34:46;51.50;;;41.80;;
51943;SDS011;37969;53.132;6.370;2023-06-22T05:37:12;56.78;;;44.70;;
51943;SDS011;37969;53.132;6.370;2023-06-22T05:39:38;56.47;;;46.13;;
51943;SDS011;37969;53.132;6.370;2023-06-22T05:42:05;56.63;;;43.13;;
51943;SDS011;37969;53.132;6.370;2023-06-22T05:44:31;55.70;;;44.45;;
51943;SDS011;37969;53.132;6.370;2023-06-22T05:46:58;51.25;;;41.05;;
51943;SDS011;37969;53.132;6.370;2023-06-22T05:49:25;53.65;;;41.05;;
51943;SDS011;37969;53.132;6.370;2023-06-22T05:51:57;46.55;;;39.50;;
51943;SDS011;37969;53.132;6.370;2023-06-22T05:54:23;45.08;;;39.38;;
51943;SDS011;37969;53.132;6.370;2023-06-22T05:56:50;51.70;;;42.70;;
51943;SDS011;37969;53.132;6.370;2023-06-22T05:59:16;52.40;;;40.97;;
51943;SDS011;37969;53.132;6.370;2023-06-22T06:01:43;49.92;;;39.63;;
51943;SDS011;37969;53.132;6.370;2023-06-22T06:04:09;49.13;;;38.97;;
51943;SDS011;37969;53.132;6.370;2023-06-22T06:06:35;50.58;;;39.13;;
51943;SDS011;37969;53.132;6.370;2023-06-22T06:09:03;46.90;;;39.30;;
51943;SDS011;37969;53.132;6.370;2023-06-22T06:11:30;44.28;;;35.92;;
51943;SDS011;37969;53.132;6.370;2023-06-22T06:13:56;43.78;;;36.67;;
51943;SDS011;37969;53.132;6.370;2023-06-22T06:16:22;46.70;;;37.35;;
51943;SDS011;37969;53.132;6.370;2023-06-22T06:18:48;49.60;;;38.53;;
51943;SDS011;37969;53.132;6.370;2023-06-22T06:21:15;44.17;;;37.88;;
51943;SDS011;37969;53.132;6.370;2023-06-22T06:23:42;43.38;;;35.95;;
51943;SDS011;37969;53.132;6.370;2023-06-22T06:26:08;45.85;;;35.47;;
51943;SDS011;37969;53.132;6.370;2023-06-22T06:28:34;41.90;;;34.42;;
51943;SDS011;37969;53.132;6.370;2023-06-22T06:31:01;41.40;;;33.67;;
51943;SDS011;37969;53.132;6.370;2023-06-22T06:33:27;43.72;;;34.28;;
51943;SDS011;37969;53.132;6.370;2023-06-22T06:35:53;40.13;;;34.53;;
51943;SDS011;37969;53.132;6.370;2023-06-22T06:38:21;39.75;;;32.95;;
51943;SDS011;37969;53.132;6.370;2023-06-22T06:40:47;38.35;;;30.90;;
51943;SDS011;37969;53.132;6.370;2023-06-22T06:43:14;34.53;;;29.98;;
51943;SDS011;37969;53.132;6.370;2023-06-22T06:45:40;34.10;;;28.08;;
51943;SDS011;37969;53.132;6.370;2023-06-22T06:48:06;33.40;;;28.48;;
51943;SDS011;37969;53.132;6.370;2023-06-22T06:50:32;32.38;;;26.08;;
51943;SDS011;37969;53.132;6.370;2023-06-22T06:52:58;31.40;;;26.13;;
51943;SDS011;37969;53.132;6.370;2023-06-22T06:55:24;28.73;;;23.55;;
51943;SDS011;37969;53.132;6.370;2023-06-22T06:57:51;27.70;;;21.80;;
51943;SDS011;37969;53.132;6.370;2023-06-22T07:00:18;21.17;;;18.88;;
51943;SDS011;37969;53.132;6.370;2023-06-22T07:02:44;20.60;;;18.40;;
51943;SDS011;37969;53.132;6.370;2023-06-22T07:05:13;25.30;;;18.02;;
51943;SDS011;37969;53.132;6.370;2023-06-22T07:07:39;23.00;;;18.35;;
51943;SDS011;37969;53.132;6.370;2023-06-22T07:10:07;21.35;;;17.95;;
51943;SDS011;37969;53.132;6.370;2023-06-22T07:12:33;18.60;;;16.48;;
51943;SDS011;37969;53.132;6.370;2023-06-22T07:15:02;18.27;;;16.25;;
51943;SDS011;37969;53.132;6.370;2023-06-22T07:17:28;23.40;;;17.45;;
51943;SDS011;37969;53.132;6.370;2023-06-22T07:19:55;22.65;;;17.27;;
51943;SDS011;37969;53.132;6.370;2023-06-22T07:22:21;17.75;;;15.25;;
51943;SDS011;37969;53.132;6.370;2023-06-22T07:24:47;16.55;;;13.15;;
51943;SDS011;37969;53.132;6.370;2023-06-22T07:27:14;17.27;;;14.65;;
51943;SDS011;37969;53.132;6.370;2023-06-22T07:29:44;19.80;;;14.32;;
51943;SDS011;37969;53.132;6.370;2023-06-22T07:32:10;19.27;;;14.68;;
51943;SDS011;37969;53.132;6.370;2023-06-22T07:34:36;16.05;;;13.98;;
51943;SDS011;37969;53.132;6.370;2023-06-22T07:37:03;14.30;;;12.80;;
51943;SDS011;37969;53.132;6.370;2023-06-22T07:39:30;17.17;;;14.23;;
51943;SDS011;37969;53.132;6.370;2023-06-22T07:41:56;13.90;;;11.00;;
51943;SDS011;37969;53.132;6.370;2023-06-22T07:44:22;26.75;;;14.45;;
51943;SDS011;37969;53.132;6.370;2023-06-22T07:46:49;22.42;;;13.73;;
51943;SDS011;37969;53.132;6.370;2023-06-22T07:49:16;17.10;;;11.60;;
51943;SDS011;37969;53.132;6.370;2023-06-22T07:51:43;14.07;;;9.80;;
51943;SDS011;37969;53.132;6.370;2023-06-22T07:54:09;20.08;;;13.20;;
51943;SDS011;37969;53.132;6.370;2023-06-22T07:56:36;16.10;;;12.43;;
51943;SDS011;37969;53.132;6.370;2023-06-22T07:59:02;12.80;;;11.25;;
51943;SDS011;37969;53.132;6.370;2023-06-22T08:01:29;14.05;;;9.93;;
51943;SDS011;37969;53.132;6.370;2023-06-22T08:03:55;13.32;;;10.27;;
51943;SDS011;37969;53.132;6.370;2023-06-22T08:06:21;12.27;;;9.07;;
51943;SDS011;37969;53.132;6.370;2023-06-22T08:08:47;11.88;;;8.57;;
51943;SDS011;37969;53.132;6.370;2023-06-22T08:11:14;16.70;;;11.63;;
51943;SDS011;37969;53.132;6.370;2023-06-22T08:13:40;12.65;;;10.00;;
51943;SDS011;37969;53.132;6.370;2023-06-22T08:16:06;11.07;;;9.27;;
51943;SDS011;37969;53.132;6.370;2023-06-22T08:18:32;10.35;;;9.30;;
51943;SDS011;37969;53.132;6.370;2023-06-22T08:20:59;11.82;;;8.70;;
51943;SDS011;37969;53.132;6.370;2023-06-22T08:23:25;12.15;;;9.27;;
51943;SDS011;37969;53.132;6.370;2023-06-22T08:25:51;11.07;;;9.40;;
51943;SDS011;37969;53.132;6.370;2023-06-22T08:28:17;12.95;;;9.48;;
51943;SDS011;37969;53.132;6.370;2023-06-22T08:30:44;15.43;;;9.93;;
51943;SDS011;37969;53.132;6.370;2023-06-22T08:33:10;15.93;;;11.00;;
51943;SDS011;37969;53.132;6.370;2023-06-22T08:35:36;15.73;;;10.57;;
51943;SDS011;37969;53.132;6.370;2023-06-22T08:38:02;15.80;;;10.77;;
51943;SDS011;37969;53.132;6.370;2023-06-22T08:40:29;14.90;;;10.80;;
51943;SDS011;37969;53.132;6.370;2023-06-22T08:42:55;17.30;;;10.98;;
51943;SDS011;37969;53.132;6.370;2023-06-22T08:45:21;14.13;;;10.25;;
51943;SDS011;37969;53.132;6.370;2023-06-22T08:47:47;14.57;;;11.13;;
51943;SDS011;37969;53.132;6.370;2023-06-22T08:50:14;14.48;;;11.25;;
51943;SDS011;37969;53.132;6.370;2023-06-22T08:52:40;13.23;;;9.90;;
51943;SDS011;37969;53.132;6.370;2023-06-22T08:55:07;12.45;;;9.13;;
51943;SDS011;37969;53.132;6.370;2023-06-22T08:57:34;15.88;;;10.70;;
51943;SDS011;37969;53.132;6.370;2023-06-22T09:00:03;29.45;;;16.58;;
51943;SDS011;37969;53.132;6.370;2023-06-22T09:02:30;12.43;;;10.88;;
51943;SDS011;37969;53.132;6.370;2023-06-22T09:04:57;14.25;;;10.30;;
51943;SDS011;37969;53.132;6.370;2023-06-22T09:07:24;18.52;;;10.80;;
51943;SDS011;37969;53.132;6.370;2023-06-22T09:09:51;11.38;;;9.88;;
51943;SDS011;37969;53.132;6.370;2023-06-22T09:12:17;13.80;;;10.07;;
51943;SDS011;37969;53.132;6.370;2023-06-22T09:14:45;13.13;;;9.15;;
51943;SDS011;37969;53.132;6.370;2023-06-22T09:17:12;9.32;;;8.25;;
51943;SDS011;37969;53.132;6.370;2023-06-22T09:19:38;13.63;;;9.68;;
51943;SDS011;37969;53.132;6.370;2023-06-22T09:22:04;10.75;;;8.32;;
51943;SDS011;37969;53.132;6.370;2023-06-22T09:24:32;14.65;;;8.63;;
51943;SDS011;37969;53.132;6.370;2023-06-22T09:26:58;11.32;;;8.32;;
51943;SDS011;37969;53.132;6.370;2023-06-22T09:29:24;10.73;;;9.52;;
51943;SDS011;37969;53.132;6.370;2023-06-22T09:31:51;13.30;;;9.43;;
51943;SDS011;37969;53.132;6.370;2023-06-22T09:34:19;11.27;;;9.60;;
51943;SDS011;37969;53.132;6.370;2023-06-22T09:36:45;14.52;;;9.25;;
51943;SDS011;37969;53.132;6.370;2023-06-22T09:39:12;9.32;;;8.40;;
51943;SDS011;37969;53.132;6.370;2023-06-22T09:41:38;15.90;;;9.25;;
51943;SDS011;37969;53.132;6.370;2023-06-22T09:44:04;10.60;;;8.90;;
51943;SDS011;37969;53.132;6.370;2023-06-22T09:46:30;12.18;;;9.48;;
51943;SDS011;37969;53.132;6.370;2023-06-22T09:48:56;9.07;;;8.18;;
51943;SDS011;37969;53.132;6.370;2023-06-22T09:51:23;10.00;;;7.82;;
51943;SDS011;37969;53.132;6.370;2023-06-22T09:53:49;9.88;;;8.55;;
51943;SDS011;37969;53.132;6.370;2023-06-22T09:56:16;10.63;;;8.00;;
51943;SDS011;37969;53.132;6.370;2023-06-22T09:58:43;8.65;;;7.75;;
51943;SDS011;37969;53.132;6.370;2023-06-22T10:01:10;9.73;;;7.13;;
51943;SDS011;37969;53.132;6.370;2023-06-22T10:03:36;12.00;;;7.82;;
51943;SDS011;37969;53.132;6.370;2023-06-22T10:06:03;7.40;;;6.68;;
51943;SDS011;37969;53.132;6.370;2023-06-22T10:08:29;14.18;;;7.40;;
51943;SDS011;37969;53.132;6.370;2023-06-22T10:10:55;10.07;;;7.72;;
51943;SDS011;37969;53.132;6.370;2023-06-22T10:13:21;9.55;;;8.27;;
51943;SDS011;37969;53.132;6.370;2023-06-22T10:15:48;11.70;;;7.78;;
51943;SDS011;37969;53.132;6.370;2023-06-22T10:18:16;10.23;;;6.82;;
51943;SDS011;37969;53.132;6.370;2023-06-22T10:20:43;12.85;;;7.35;;
51943;SDS011;37969;53.132;6.370;2023-06-22T10:23:09;8.10;;;7.22;;
51943;SDS011;37969;53.132;6.370;2023-06-22T10:25:35;8.15;;;7.00;;
51943;SDS011;37969;53.132;6.370;2023-06-22T10:28:01;8.35;;;6.15;;
51943;SDS011;37969;53.132;6.370;2023-06-22T10:30:28;11.57;;;7.15;;
51943;SDS011;37969;53.132;6.370;2023-06-22T10:32:54;10.70;;;7.68;;
51943;SDS011;37969;53.132;6.370;2023-06-22T10:35:20;9.52;;;6.97;;
51943;SDS011;37969;53.132;6.370;2023-06-22T10:37:47;10.70;;;7.70;;
51943;SDS011;37969;53.132;6.370;2023-06-22T10:40:13;8.65;;;7.03;;
51943;SDS011;37969;53.132;6.370;2023-06-22T10:42:40;9.75;;;7.25;;
51943;SDS011;37969;53.132;6.370;2023-06-22T10:45:06;8.57;;;6.65;;
51943;SDS011;37969;53.132;6.370;2023-06-22T10:47:33;14.90;;;6.22;;
51943;SDS011;37969;53.132;6.370;2023-06-22T10:50:00;5.93;;;5.22;;
51943;SDS011;37969;53.132;6.370;2023-06-22T10:52:26;5.47;;;5.00;;
51943;SDS011;37969;53.132;6.370;2023-06-22T10:54:52;6.93;;;5.75;;
51943;SDS011;37969;53.132;6.370;2023-06-22T10:57:19;6.93;;;5.63;;
51943;SDS011;37969;53.132;6.370;2023-06-22T10:59:45;8.65;;;6.75;;
51943;SDS011;37969;53.132;6.370;2023-06-22T11:02:11;8.32;;;5.82;;
51943;SDS011;37969;53.132;6.370;2023-06-22T11:04:38;10.13;;;6.18;;
51943;SDS011;37969;53.132;6.370;2023-06-22T11:07:04;9.70;;;6.75;;
51943;SDS011;37969;53.132;6.370;2023-06-22T11:09:31;10.80;;;7.70;;
51943;SDS011;37969;53.132;6.370;2023-06-22T11:11:57;8.85;;;7.63;;
51943;SDS011;37969;53.132;6.370;2023-06-22T11:14:24;8.57;;;7.05;;
51943;SDS011;37969;53.132;6.370;2023-06-22T11:16:50;8.63;;;7.80;;
51943;SDS011;37969;53.132;6.370;2023-06-22T11:19:17;11.10;;;7.80;;
51943;SDS011;37969;53.132;6.370;2023-06-22T11:21:43;11.85;;;6.90;;
51943;SDS011;37969;53.132;6.370;2023-06-22T11:24:09;9.27;;;7.00;;
51943;SDS011;37969;53.132;6.370;2023-06-22T11:26:36;9.77;;;7.50;;
51943;SDS011;37969;53.132;6.370;2023-06-22T11:29:02;8.50;;;7.32;;
51943;SDS011;37969;53.132;6.370;2023-06-22T11:31:31;8.45;;;6.63;;
51943;SDS011;37969;53.132;6.370;2023-06-22T11:33:57;10.13;;;7.28;;
51943;SDS011;37969;53.132;6.370;2023-06-22T11:36:24;6.63;;;5.93;;
51943;SDS011;37969;53.132;6.370;2023-06-22T11:38:50;7.22;;;6.53;;
51943;SDS011;37969;53.132;6.370;2023-06-22T11:41:17;7.90;;;6.30;;
51943;SDS011;37969;53.132;6.370;2023-06-22T11:43:43;7.90;;;5.97;;
51943;SDS011;37969;53.132;6.370;2023-06-22T11:46:10;8.52;;;6.90;;
51943;SDS011;37969;53.132;6.370;2023-06-22T11:48:36;9.85;;;5.75;;
51943;SDS011;37969;53.132;6.370;2023-06-22T11:51:03;7.10;;;6.40;;
51943;SDS011;37969;53.132;6.370;2023-06-22T11:53:31;11.93;;;7.45;;
51943;SDS011;37969;53.132;6.370;2023-06-22T11:55:57;7.65;;;6.25;;
51943;SDS011;37969;53.132;6.370;2023-06-22T11:58:24;7.60;;;6.47;;
51943;SDS011;37969;53.132;6.370;2023-06-22T12:00:51;7.28;;;6.50;;
51943;SDS011;37969;53.132;6.370;2023-06-22T12:03:17;6.72;;;5.00;;
51943;SDS011;37969;53.132;6.370;2023-06-22T12:05:43;8.38;;;5.93;;
51943;SDS011;37969;53.132;6.370;2023-06-22T12:08:10;6.30;;;5.68;;
51943;SDS011;37969;53.132;6.370;2023-06-22T12:10:37;6.93;;;5.70;;
51943;SDS011;37969;53.132;6.370;2023-06-22T12:13:03;6.90;;;6.03;;
51943;SDS011;37969;53.132;6.370;2023-06-22T12:15:29;9.10;;;5.88;;
51943;SDS011;37969;53.132;6.370;2023-06-22T12:17:55;8.65;;;6.60;;
51943;SDS011;37969;53.132;6.370;2023-06-22T12:20:21;7.78;;;6.95;;
51943;SDS011;37969;53.132;6.370;2023-06-22T12:22:48;7.97;;;5.97;;
51943;SDS011;37969;53.132;6.370;2023-06-22T12:25:16;10.18;;;7.55;;
51943;SDS011;37969;53.132;6.370;2023-06-22T12:27:42;8.10;;;6.78;;
51943;SDS011;37969;53.132;6.370;2023-06-22T12:30:09;9.70;;;7.10;;
51943;SDS011;37969;53.132;6.370;2023-06-22T12:32:35;8.20;;;6.45;;
51943;SDS011;37969;53.132;6.370;2023-06-22T12:35:01;7.68;;;6.97;;
51943;SDS011;37969;53.132;6.370;2023-06-22T12:37:27;9.57;;;8.68;;
51943;SDS011;37969;53.132;6.370;2023-06-22T12:39:54;13.48;;;8.50;;
51943;SDS011;37969;53.132;6.370;2023-06-22T12:42:20;10.30;;;8.55;;
51943;SDS011;37969;53.132;6.370;2023-06-22T12:44:47;11.50;;;8.43;;
51943;SDS011;37969;53.132;6.370;2023-06-22T12:47:13;8.60;;;7.60;;
51943;SDS011;37969;53.132;6.370;2023-06-22T12:49:39;9.68;;;8.73;;
51943;SDS011;37969;53.132;6.370;2023-06-22T12:52:08;9.85;;;8.18;;
51943;SDS011;37969;53.132;6.370;2023-06-22T12:54:35;11.18;;;7.63;;
51943;SDS011;37969;53.132;6.370;2023-06-22T12:57:01;9.20;;;7.07;;
51943;SDS011;37969;53.132;6.370;2023-06-22T12:59:28;9.35;;;8.18;;
51943;SDS011;37969;53.132;6.370;2023-06-22T13:01:54;8.48;;;7.45;;
51943;SDS011;37969;53.132;6.370;2023-06-22T13:04:20;9.75;;;7.43;;
51943;SDS011;37969;53.132;6.370;2023-06-22T13:06:47;10.00;;;7.10;;
51943;SDS011;37969;53.132;6.370;2023-06-22T13:09:13;7.85;;;5.82;;
51943;SDS011;37969;53.132;6.370;2023-06-22T13:11:40;12.70;;;6.22;;
51943;SDS011;37969;53.132;6.370;2023-06-22T13:14:06;6.28;;;5.32;;
51943;SDS011;37969;53.132;6.370;2023-06-22T13:16:32;9.90;;;6.22;;
51943;SDS011;37969;53.132;6.370;2023-06-22T13:18:59;7.07;;;5.20;;
51943;SDS011;37969;53.132;6.370;2023-06-22T13:21:25;6.65;;;5.80;;
51943;SDS011;37969;53.132;6.370;2023-06-22T13:23:51;7.20;;;4.95;;
51943;SDS011;37969;53.132;6.370;2023-06-22T13:26:18;6.88;;;5.40;;
51943;SDS011;37969;53.132;6.370;2023-06-22T13:28:44;5.05;;;4.65;;
51943;SDS011;37969;53.132;6.370;2023-06-22T13:31:10;7.82;;;5.43;;
51943;SDS011;37969;53.132;6.370;2023-06-22T13:33:37;7.88;;;6.18;;
51943;SDS011;37969;53.132;6.370;2023-06-22T13:36:06;7.57;;;5.70;;
51943;SDS011;37969;53.132;6.370;2023-06-22T13:38:32;7.43;;;5.65;;
51943;SDS011;37969;53.132;6.370;2023-06-22T13:40:58;7.28;;;6.40;;
51943;SDS011;37969;53.132;6.370;2023-06-22T13:43:26;8.82;;;7.03;;
51943;SDS011;37969;53.132;6.370;2023-06-22T13:45:53;10.80;;;6.45;;
51943;SDS011;37969;53.132;6.370;2023-06-22T13:48:19;8.93;;;6.22;;
51943;SDS011;37969;53.132;6.370;2023-06-22T13:50:45;9.07;;;5.47;;
51943;SDS011;37969;53.132;6.370;2023-06-22T13:53:11;6.38;;;5.75;;
51943;SDS011;37969;53.132;6.370;2023-06-22T13:55:37;6.07;;;5.20;;
51943;SDS011;37969;53.132;6.370;2023-06-22T13:58:04;6.75;;;4.75;;
51943;SDS011;37969;53.132;6.370;2023-06-22T14:00:30;4.75;;;4.35;;
51943;SDS011;37969;53.132;6.370;2023-06-22T14:02:56;4.82;;;4.43;;
51943;SDS011;37969;53.132;6.370;2023-06-22T14:05:22;7.47;;;4.80;;
51943;SDS011;37969;53.132;6.370;2023-06-22T14:07:49;6.97;;;5.05;;
51943;SDS011;37969;53.132;6.370;2023-06-22T14:10:15;8.05;;;4.88;;
51943;SDS011;37969;53.132;6.370;2023-06-22T14:12:41;5.47;;;4.47;;
51943;SDS011;37969;53.132;6.370;2023-06-22T14:15:07;4.72;;;3.92;;
51943;SDS011;37969;53.132;6.370;2023-06-22T14:17:33;5.43;;;3.47;;
51943;SDS011;37969;53.132;6.370;2023-06-22T14:20:00;7.32;;;3.95;;
51943;SDS011;37969;53.132;6.370;2023-06-22T14:22:26;4.97;;;3.50;;
51943;SDS011;37969;53.132;6.370;2023-06-22T14:24:54;5.45;;;3.22;;
51943;SDS011;37969;53.132;6.370;2023-06-22T14:27:22;5.38;;;2.72;;
51943;SDS011;37969;53.132;6.370;2023-06-22T14:29:49;6.05;;;2.67;;
51943;SDS011;37969;53.132;6.370;2023-06-22T14:32:15;2.63;;;2.53;;
51943;SDS011;37969;53.132;6.370;2023-06-22T14:34:41;2.67;;;2.25;;
51943;SDS011;37969;53.132;6.370;2023-06-22T14:37:08;3.03;;;2.58;;